sensor_id;sensor_type;location;lat;lon;timestamp;temperature;humidity
318;DHT22;146;53.448;10.228;2023-06-14T00:00:54;15.70;1.00
318;DHT22;146;53.448;10.228;2023-06-14T00:03:28;15.70;1.00
318;DHT22;146;53.448;10.228;2023-06-14T00:06:00;15.70;1.00
318;DHT22;146;53.448;10.228;2023-06-14T00:08:30;15.60;1.00
318;DHT22;146;53.448;10.228;2023-06-14T00:11:00;15.70;1.00
318;DHT22;146;53.448;10.228;2023-06-14T00:13:27;15.60;1.00
318;DHT22;146;53.448;10.228;2023-06-14T00:15:54;15.60;1.00
318;DHT22;146;53.448;10.228;2023-06-14T00:18:24;15.60;1.00
318;DHT22;146;53.448;10.228;2023-06-14T00:20:59;15.60;1.00
318;DHT22;146;53.448;10.228;2023-06-14T00:23:42;15.60;1.00
318;DHT22;146;53.448;10.228;2023-06-14T00:26:10;15.70;1.00
318;DHT22;146;53.448;10.228;2023-06-14T00:28:37;15.80;1.00
318;DHT22;146;53.448;10.228;2023-06-14T00:31:04;15.70;1.00
318;DHT22;146;53.448;10.228;2023-06-14T00:33:37;15.60;1.00
318;DHT22;146;53.448;10.228;2023-06-14T00:36:04;15.60;1.00
318;DHT22;146;53.448;10.228;2023-06-14T00:38:37;15.60;1.00
318;DHT22;146;53.448;10.228;2023-06-14T00:41:04;15.60;1.00
318;DHT22;146;53.448;10.228;2023-06-14T00:43:32;15.60;1.00
318;DHT22;146;53.448;10.228;2023-06-14T00:46:00;15.70;1.00
318;DHT22;146;53.448;10.228;2023-06-14T00:48:37;15.70;1.00
318;DHT22;146;53.448;10.228;2023-06-14T00:51:16;15.80;1.00
318;DHT22;146;53.448;10.228;2023-06-14T00:53:52;15.80;1.00
318;DHT22;146;53.448;10.228;2023-06-14T00:56:25;15.80;1.00
318;DHT22;146;53.448;10.228;2023-06-14T00:58:58;15.80;1.00
318;DHT22;146;53.448;10.228;2023-06-14T01:01:28;15.80;1.00
318;DHT22;146;53.448;10.228;2023-06-14T01:04:01;15.70;1.00
318;DHT22;146;53.448;10.228;2023-06-14T01:06:40;15.80;1.00
318;DHT22;146;53.448;10.228;2023-06-14T01:09:30;15.70;1.00
318;DHT22;146;53.448;10.228;2023-06-14T01:12:07;15.70;1.00
318;DHT22;146;53.448;10.228;2023-06-14T01:14:44;15.60;1.00
318;DHT22;146;53.448;10.228;2023-06-14T01:17:18;15.60;1.00
318;DHT22;146;53.448;10.228;2023-06-14T01:19:46;15.50;1.00
318;DHT22;146;53.448;10.228;2023-06-14T01:22:16;15.50;1.00
318;DHT22;146;53.448;10.228;2023-06-14T01:24:50;15.50;1.00
318;DHT22;146;53.448;10.228;2023-06-14T01:27:28;15.50;1.00
318;DHT22;146;53.448;10.228;2023-06-14T01:29:55;15.40;1.00
318;DHT22;146;53.448;10.228;2023-06-14T01:32:29;15.40;1.00
318;DHT22;146;53.448;10.228;2023-06-14T01:34:56;15.40;1.00
318;DHT22;146;53.448;10.228;2023-06-14T01:37:23;15.40;1.00
318;DHT22;146;53.448;10.228;2023-06-14T01:39:54;15.40;1.00
318;DHT22;146;53.448;10.228;2023-06-14T01:42:25;15.40;1.00
318;DHT22;146;53.448;10.228;2023-06-14T01:44:58;15.40;1.00
318;DHT22;146;53.448;10.228;2023-06-14T01:47:25;15.40;1.00
318;DHT22;146;53.448;10.228;2023-06-14T01:50:00;15.40;1.00
318;DHT22;146;53.448;10.228;2023-06-14T01:52:33;15.40;1.00
318;DHT22;146;53.448;10.228;2023-06-14T01:55:03;15.40;1.00
318;DHT22;146;53.448;10.228;2023-06-14T01:57:36;15.30;1.00
318;DHT22;146;53.448;10.228;2023-06-14T02:00:03;15.40;1.00
318;DHT22;146;53.448;10.228;2023-06-14T02:02:34;15.40;1.00
318;DHT22;146;53.448;10.228;2023-06-14T02:05:01;15.30;1.00
318;DHT22;146;53.448;10.228;2023-06-14T02:07:27;15.30;1.00
318;DHT22;146;53.448;10.228;2023-06-14T02:09:57;15.30;1.00
318;DHT22;146;53.448;10.228;2023-06-14T02:12:31;15.30;1.00
318;DHT22;146;53.448;10.228;2023-06-14T02:14:58;15.20;1.00
318;DHT22;146;53.448;10.228;2023-06-14T02:17:31;15.20;1.00
318;DHT22;146;53.448;10.228;2023-06-14T02:20:04;15.20;1.00
318;DHT22;146;53.448;10.228;2023-06-14T02:22:31;15.20;1.00
318;DHT22;146;53.448;10.228;2023-06-14T02:25:01;15.20;1.00
318;DHT22;146;53.448;10.228;2023-06-14T02:27:35;15.20;1.00
318;DHT22;146;53.448;10.228;2023-06-14T02:30:03;15.10;1.00
318;DHT22;146;53.448;10.228;2023-06-14T02:32:29;15.10;1.00
318;DHT22;146;53.448;10.228;2023-06-14T02:34:57;15.10;1.00
318;DHT22;146;53.448;10.228;2023-06-14T02:37:27;15.10;1.00
318;DHT22;146;53.448;10.228;2023-06-14T02:39:56;15.10;1.00
318;DHT22;146;53.448;10.228;2023-06-14T02:42:26;15.00;1.00
318;DHT22;146;53.448;10.228;2023-06-14T02:44:57;15.00;1.00
318;DHT22;146;53.448;10.228;2023-06-14T02:47:27;15.00;1.00
318;DHT22;146;53.448;10.228;2023-06-14T02:49:53;14.90;1.00
318;DHT22;146;53.448;10.228;2023-06-14T02:52:30;14.80;1.00
318;DHT22;146;53.448;10.228;2023-06-14T02:55:02;14.70;1.00
318;DHT22;146;53.448;10.228;2023-06-14T02:57:28;14.80;1.00
318;DHT22;146;53.448;10.228;2023-06-14T02:59:59;14.80;1.00
318;DHT22;146;53.448;10.228;2023-06-14T03:02:26;14.80;1.00
318;DHT22;146;53.448;10.228;2023-06-14T03:04:52;14.80;1.00
318;DHT22;146;53.448;10.228;2023-06-14T03:07:22;14.70;1.00
318;DHT22;146;53.448;10.228;2023-06-14T03:09:56;14.70;1.00
318;DHT22;146;53.448;10.228;2023-06-14T03:12:26;14.60;1.00
318;DHT22;146;53.448;10.228;2023-06-14T03:14:53;14.60;1.00
318;DHT22;146;53.448;10.228;2023-06-14T03:17:29;14.60;1.00
318;DHT22;146;53.448;10.228;2023-06-14T03:19:59;14.60;1.00
318;DHT22;146;53.448;10.228;2023-06-14T03:22:25;14.70;1.00
318;DHT22;146;53.448;10.228;2023-06-14T03:24:54;14.70;1.00
318;DHT22;146;53.448;10.228;2023-06-14T03:27:23;14.80;1.00
318;DHT22;146;53.448;10.228;2023-06-14T03:29:56;14.80;1.00
318;DHT22;146;53.448;10.228;2023-06-14T03:32:30;14.80;1.00
318;DHT22;146;53.448;10.228;2023-06-14T03:35:02;14.90;1.00
318;DHT22;146;53.448;10.228;2023-06-14T03:37:28;14.90;1.00
318;DHT22;146;53.448;10.228;2023-06-14T03:39:56;14.90;1.00
318;DHT22;146;53.448;10.228;2023-06-14T03:42:28;14.80;1.00
318;DHT22;146;53.448;10.228;2023-06-14T03:44:55;14.90;1.00
318;DHT22;146;53.448;10.228;2023-06-14T03:47:30;14.90;1.00
318;DHT22;146;53.448;10.228;2023-06-14T03:50:00;14.80;1.00
318;DHT22;146;53.448;10.228;2023-06-14T03:52:28;14.90;1.00
318;DHT22;146;53.448;10.228;2023-06-14T03:54:55;14.90;1.00
318;DHT22;146;53.448;10.228;2023-06-14T03:57:29;14.90;1.00
318;DHT22;146;53.448;10.228;2023-06-14T03:59:56;14.90;1.00
318;DHT22;146;53.448;10.228;2023-06-14T04:02:33;14.90;1.00
318;DHT22;146;53.448;10.228;2023-06-14T04:05:06;14.90;1.00
318;DHT22;146;53.448;10.228;2023-06-14T04:07:36;14.90;1.00
318;DHT22;146;53.448;10.228;2023-06-14T04:10:15;14.90;1.00
318;DHT22;146;53.448;10.228;2023-06-14T04:12:47;14.90;1.00
318;DHT22;146;53.448;10.228;2023-06-14T04:15:17;15.00;1.00
318;DHT22;146;53.448;10.228;2023-06-14T04:17:45;15.00;1.00
318;DHT22;146;53.448;10.228;2023-06-14T04:20:21;15.00;1.00
318;DHT22;146;53.448;10.228;2023-06-14T04:22:49;15.00;1.00
318;DHT22;146;53.448;10.228;2023-06-14T04:25:28;15.00;1.00
318;DHT22;146;53.448;10.228;2023-06-14T04:27:57;15.10;1.00
318;DHT22;146;53.448;10.228;2023-06-14T04:30:31;15.10;1.00
318;DHT22;146;53.448;10.228;2023-06-14T04:33:17;15.10;1.00
318;DHT22;146;53.448;10.228;2023-06-14T04:35:43;15.20;1.00
318;DHT22;146;53.448;10.228;2023-06-14T04:38:24;15.10;1.00
318;DHT22;146;53.448;10.228;2023-06-14T04:40:58;15.10;1.00
318;DHT22;146;53.448;10.228;2023-06-14T04:43:27;15.10;1.00
318;DHT22;146;53.448;10.228;2023-06-14T04:45:57;15.20;1.00
318;DHT22;146;53.448;10.228;2023-06-14T04:48:25;15.30;1.00
318;DHT22;146;53.448;10.228;2023-06-14T04:50:55;15.30;1.00
318;DHT22;146;53.448;10.228;2023-06-14T04:53:27;15.30;1.00
318;DHT22;146;53.448;10.228;2023-06-14T04:55:54;15.30;1.00
318;DHT22;146;53.448;10.228;2023-06-14T04:58:27;15.40;1.00
318;DHT22;146;53.448;10.228;2023-06-14T05:00:57;15.50;1.00
318;DHT22;146;53.448;10.228;2023-06-14T05:03:28;15.60;1.00
318;DHT22;146;53.448;10.228;2023-06-14T05:06:05;15.60;1.00
318;DHT22;146;53.448;10.228;2023-06-14T05:08:32;15.70;1.00
318;DHT22;146;53.448;10.228;2023-06-14T05:10:58;15.70;1.00
318;DHT22;146;53.448;10.228;2023-06-14T05:13:25;15.80;1.00
318;DHT22;146;53.448;10.228;2023-06-14T05:15:59;15.80;1.00
318;DHT22;146;53.448;10.228;2023-06-14T05:18:33;15.90;1.00
318;DHT22;146;53.448;10.228;2023-06-14T05:21:00;15.90;1.00
318;DHT22;146;53.448;10.228;2023-06-14T05:23:30;15.90;1.00
318;DHT22;146;53.448;10.228;2023-06-14T05:25:57;15.90;1.00
318;DHT22;146;53.448;10.228;2023-06-14T05:28:24;16.00;1.00
318;DHT22;146;53.448;10.228;2023-06-14T05:30:57;16.00;1.00
318;DHT22;146;53.448;10.228;2023-06-14T05:33:27;16.00;1.00
318;DHT22;146;53.448;10.228;2023-06-14T05:36:01;16.00;1.00
318;DHT22;146;53.448;10.228;2023-06-14T05:38:28;16.00;1.00
318;DHT22;146;53.448;10.228;2023-06-14T05:41:01;16.00;1.00
318;DHT22;146;53.448;10.228;2023-06-14T05:43:27;16.10;1.00
318;DHT22;146;53.448;10.228;2023-06-14T05:45:55;16.20;1.00
318;DHT22;146;53.448;10.228;2023-06-14T05:48:25;16.10;1.00
318;DHT22;146;53.448;10.228;2023-06-14T05:50:52;16.20;1.00
318;DHT22;146;53.448;10.228;2023-06-14T05:53:21;16.30;1.00
318;DHT22;146;53.448;10.228;2023-06-14T05:55:50;16.40;1.00
318;DHT22;146;53.448;10.228;2023-06-14T05:58:21;16.40;1.00
318;DHT22;146;53.448;10.228;2023-06-14T06:00:48;16.40;1.00
318;DHT22;146;53.448;10.228;2023-06-14T06:03:15;16.50;1.00
318;DHT22;146;53.448;10.228;2023-06-14T06:05:54;16.50;1.00
318;DHT22;146;53.448;10.228;2023-06-14T06:08:25;16.50;1.00
318;DHT22;146;53.448;10.228;2023-06-14T06:10:52;16.60;1.00
318;DHT22;146;53.448;10.228;2023-06-14T06:13:19;16.70;1.00
318;DHT22;146;53.448;10.228;2023-06-14T06:15:45;16.70;1.00
318;DHT22;146;53.448;10.228;2023-06-14T06:18:18;16.70;1.00
318;DHT22;146;53.448;10.228;2023-06-14T06:21:04;16.80;1.00
318;DHT22;146;53.448;10.228;2023-06-14T06:23:38;16.80;1.00
318;DHT22;146;53.448;10.228;2023-06-14T06:26:05;16.90;1.00
318;DHT22;146;53.448;10.228;2023-06-14T06:28:31;17.00;1.00
318;DHT22;146;53.448;10.228;2023-06-14T06:31:01;16.90;1.00
318;DHT22;146;53.448;10.228;2023-06-14T06:33:28;16.90;1.00
318;DHT22;146;53.448;10.228;2023-06-14T06:35:55;17.10;1.00
318;DHT22;146;53.448;10.228;2023-06-14T06:38:22;17.10;1.00
318;DHT22;146;53.448;10.228;2023-06-14T06:40:50;17.20;1.00
318;DHT22;146;53.448;10.228;2023-06-14T06:43:17;17.20;1.00
318;DHT22;146;53.448;10.228;2023-06-14T06:45:44;17.30;1.00
318;DHT22;146;53.448;10.228;2023-06-14T06:48:17;17.40;1.00
318;DHT22;146;53.448;10.228;2023-06-14T06:50:43;17.40;1.00
318;DHT22;146;53.448;10.228;2023-06-14T06:53:24;17.60;1.00
318;DHT22;146;53.448;10.228;2023-06-14T06:55:55;17.60;1.00
318;DHT22;146;53.448;10.228;2023-06-14T06:58:28;17.60;1.00
318;DHT22;146;53.448;10.228;2023-06-14T07:01:01;17.60;1.00
318;DHT22;146;53.448;10.228;2023-06-14T07:03:28;17.70;1.00
318;DHT22;146;53.448;10.228;2023-06-14T07:05:55;17.80;1.00
318;DHT22;146;53.448;10.228;2023-06-14T07:08:22;17.90;1.00
318;DHT22;146;53.448;10.228;2023-06-14T07:10:58;17.90;1.00
318;DHT22;146;53.448;10.228;2023-06-14T07:13:34;17.80;1.00
318;DHT22;146;53.448;10.228;2023-06-14T07:16:04;17.90;1.00
318;DHT22;146;53.448;10.228;2023-06-14T07:18:31;18.00;1.00
318;DHT22;146;53.448;10.228;2023-06-14T07:20:58;18.00;1.00
318;DHT22;146;53.448;10.228;2023-06-14T07:23:30;18.20;1.00
318;DHT22;146;53.448;10.228;2023-06-14T07:26:02;18.20;1.00
318;DHT22;146;53.448;10.228;2023-06-14T07:28:31;18.40;1.00
318;DHT22;146;53.448;10.228;2023-06-14T07:31:07;18.40;1.00
318;DHT22;146;53.448;10.228;2023-06-14T07:33:34;18.50;1.00
318;DHT22;146;53.448;10.228;2023-06-14T07:36:22;18.50;1.00
318;DHT22;146;53.448;10.228;2023-06-14T07:38:52;18.60;1.00
318;DHT22;146;53.448;10.228;2023-06-14T07:41:28;18.60;1.00
318;DHT22;146;53.448;10.228;2023-06-14T07:43:55;18.80;1.00
318;DHT22;146;53.448;10.228;2023-06-14T07:46:27;18.80;1.00
318;DHT22;146;53.448;10.228;2023-06-14T07:48:55;18.80;1.00
318;DHT22;146;53.448;10.228;2023-06-14T07:51:22;18.80;1.00
318;DHT22;146;53.448;10.228;2023-06-14T07:53:52;18.90;1.00
318;DHT22;146;53.448;10.228;2023-06-14T07:56:29;18.90;1.00
318;DHT22;146;53.448;10.228;2023-06-14T07:58:56;19.00;1.00
318;DHT22;146;53.448;10.228;2023-06-14T08:01:23;19.00;1.00
318;DHT22;146;53.448;10.228;2023-06-14T08:03:54;19.00;1.00
318;DHT22;146;53.448;10.228;2023-06-14T08:06:27;19.10;1.00
318;DHT22;146;53.448;10.228;2023-06-14T08:08:53;19.20;1.00
318;DHT22;146;53.448;10.228;2023-06-14T08:11:20;19.30;1.00
318;DHT22;146;53.448;10.228;2023-06-14T08:13:53;19.30;1.00
318;DHT22;146;53.448;10.228;2023-06-14T08:16:23;19.40;1.00
318;DHT22;146;53.448;10.228;2023-06-14T08:18:50;19.40;1.00
318;DHT22;146;53.448;10.228;2023-06-14T08:21:32;19.50;1.00
318;DHT22;146;53.448;10.228;2023-06-14T08:23:59;19.60;1.00
318;DHT22;146;53.448;10.228;2023-06-14T08:26:26;19.70;1.00
318;DHT22;146;53.448;10.228;2023-06-14T08:29:09;19.70;1.00
318;DHT22;146;53.448;10.228;2023-06-14T08:31:36;19.80;1.00
318;DHT22;146;53.448;10.228;2023-06-14T08:34:03;19.90;1.00
318;DHT22;146;53.448;10.228;2023-06-14T08:36:30;19.90;1.00
318;DHT22;146;53.448;10.228;2023-06-14T08:39:02;19.90;1.00
318;DHT22;146;53.448;10.228;2023-06-14T08:41:36;20.00;1.00
318;DHT22;146;53.448;10.228;2023-06-14T08:44:03;20.00;1.00
318;DHT22;146;53.448;10.228;2023-06-14T08:46:33;20.10;1.00
318;DHT22;146;53.448;10.228;2023-06-14T08:49:04;20.10;1.00
318;DHT22;146;53.448;10.228;2023-06-14T08:51:32;20.10;1.00
318;DHT22;146;53.448;10.228;2023-06-14T08:54:11;20.30;1.00
318;DHT22;146;53.448;10.228;2023-06-14T08:56:41;20.30;1.00
318;DHT22;146;53.448;10.228;2023-06-14T08:59:09;20.50;1.00
318;DHT22;146;53.448;10.228;2023-06-14T09:01:45;20.60;1.00
318;DHT22;146;53.448;10.228;2023-06-14T09:04:16;20.50;1.00
318;DHT22;146;53.448;10.228;2023-06-14T09:06:59;20.70;1.00
318;DHT22;146;53.448;10.228;2023-06-14T09:09:32;20.70;1.00
318;DHT22;146;53.448;10.228;2023-06-14T09:12:00;20.90;1.00
318;DHT22;146;53.448;10.228;2023-06-14T09:14:37;20.90;1.00
318;DHT22;146;53.448;10.228;2023-06-14T09:17:07;20.90;1.00
318;DHT22;146;53.448;10.228;2023-06-14T09:19:38;20.90;1.00
318;DHT22;146;53.448;10.228;2023-06-14T09:22:08;21.10;1.00
318;DHT22;146;53.448;10.228;2023-06-14T09:24:37;21.20;1.00
318;DHT22;146;53.448;10.228;2023-06-14T09:27:14;21.20;1.00
318;DHT22;146;53.448;10.228;2023-06-14T09:29:50;21.30;1.00
318;DHT22;146;53.448;10.228;2023-06-14T09:32:18;21.40;1.00
318;DHT22;146;53.448;10.228;2023-06-14T09:34:51;21.30;1.00
318;DHT22;146;53.448;10.228;2023-06-14T09:37:30;21.40;1.00
318;DHT22;146;53.448;10.228;2023-06-14T09:39:58;21.50;1.00
318;DHT22;146;53.448;10.228;2023-06-14T09:42:25;21.50;1.00
318;DHT22;146;53.448;10.228;2023-06-14T09:45:02;21.60;1.00
318;DHT22;146;53.448;10.228;2023-06-14T09:47:31;21.70;1.00
318;DHT22;146;53.448;10.228;2023-06-14T09:49:57;21.70;1.00
318;DHT22;146;53.448;10.228;2023-06-14T09:52:27;21.60;1.00
318;DHT22;146;53.448;10.228;2023-06-14T09:55:02;21.80;1.00
318;DHT22;146;53.448;10.228;2023-06-14T09:57:34;21.90;1.00
318;DHT22;146;53.448;10.228;2023-06-14T10:00:02;21.90;1.00
318;DHT22;146;53.448;10.228;2023-06-14T10:02:37;22.00;1.00
318;DHT22;146;53.448;10.228;2023-06-14T10:05:06;22.10;1.00
318;DHT22;146;53.448;10.228;2023-06-14T10:07:38;22.20;1.00
318;DHT22;146;53.448;10.228;2023-06-14T10:10:07;22.10;1.00
318;DHT22;146;53.448;10.228;2023-06-14T10:12:43;22.20;1.00
318;DHT22;146;53.448;10.228;2023-06-14T10:15:14;22.40;1.00
318;DHT22;146;53.448;10.228;2023-06-14T10:17:47;22.50;1.00
318;DHT22;146;53.448;10.228;2023-06-14T10:20:22;22.60;1.00
318;DHT22;146;53.448;10.228;2023-06-14T10:23:00;22.70;1.00
318;DHT22;146;53.448;10.228;2023-06-14T10:25:29;22.90;1.00
318;DHT22;146;53.448;10.228;2023-06-14T10:28:03;23.10;1.00
318;DHT22;146;53.448;10.228;2023-06-14T10:30:31;23.20;1.00
318;DHT22;146;53.448;10.228;2023-06-14T10:33:05;23.30;1.00
318;DHT22;146;53.448;10.228;2023-06-14T10:35:33;23.40;1.00
318;DHT22;146;53.448;10.228;2023-06-14T10:38:10;23.30;1.00
318;DHT22;146;53.448;10.228;2023-06-14T10:40:39;23.50;1.00
318;DHT22;146;53.448;10.228;2023-06-14T10:43:22;23.30;1.00
318;DHT22;146;53.448;10.228;2023-06-14T10:46:15;23.10;1.00
318;DHT22;146;53.448;10.228;2023-06-14T10:48:44;22.90;1.00
318;DHT22;146;53.448;10.228;2023-06-14T10:51:18;22.70;1.00
318;DHT22;146;53.448;10.228;2023-06-14T10:53:47;22.70;1.00
318;DHT22;146;53.448;10.228;2023-06-14T10:56:26;22.60;1.00
318;DHT22;146;53.448;10.228;2023-06-14T10:58:53;22.70;1.00
318;DHT22;146;53.448;10.228;2023-06-14T11:01:31;22.80;1.00
318;DHT22;146;53.448;10.228;2023-06-14T11:04:07;22.70;1.00
318;DHT22;146;53.448;10.228;2023-06-14T11:06:52;22.70;1.00
318;DHT22;146;53.448;10.228;2023-06-14T11:10:05;22.70;1.00
318;DHT22;146;53.448;10.228;2023-06-14T11:12:36;22.90;1.00
318;DHT22;146;53.448;10.228;2023-06-14T11:15:14;23.20;1.00
318;DHT22;146;53.448;10.228;2023-06-14T11:17:51;23.30;1.00
318;DHT22;146;53.448;10.228;2023-06-14T11:20:21;23.50;1.00
318;DHT22;146;53.448;10.228;2023-06-14T11:22:51;23.60;1.00
318;DHT22;146;53.448;10.228;2023-06-14T11:25:21;23.70;1.00
318;DHT22;146;53.448;10.228;2023-06-14T11:27:51;23.90;1.00
318;DHT22;146;53.448;10.228;2023-06-14T11:30:24;23.90;1.00
318;DHT22;146;53.448;10.228;2023-06-14T11:32:55;24.00;1.00
318;DHT22;146;53.448;10.228;2023-06-14T11:35:29;24.10;1.00
318;DHT22;146;53.448;10.228;2023-06-14T11:38:01;24.00;1.00
318;DHT22;146;53.448;10.228;2023-06-14T11:40:29;23.80;1.00
318;DHT22;146;53.448;10.228;2023-06-14T11:43:02;23.70;1.00
318;DHT22;146;53.448;10.228;2023-06-14T11:45:32;23.60;1.00
318;DHT22;146;53.448;10.228;2023-06-14T11:47:59;23.40;1.00
318;DHT22;146;53.448;10.228;2023-06-14T11:50:38;23.60;1.00
318;DHT22;146;53.448;10.228;2023-06-14T11:53:15;23.60;1.00
318;DHT22;146;53.448;10.228;2023-06-14T11:55:48;23.80;1.00
318;DHT22;146;53.448;10.228;2023-06-14T11:58:15;23.90;1.00
318;DHT22;146;53.448;10.228;2023-06-14T12:00:42;24.20;1.00
318;DHT22;146;53.448;10.228;2023-06-14T12:03:12;24.30;1.00
318;DHT22;146;53.448;10.228;2023-06-14T12:05:46;24.40;1.00
318;DHT22;146;53.448;10.228;2023-06-14T12:08:16;24.50;1.00
318;DHT22;146;53.448;10.228;2023-06-14T12:10:44;24.30;1.00
318;DHT22;146;53.448;10.228;2023-06-14T12:13:10;24.20;1.00
318;DHT22;146;53.448;10.228;2023-06-14T12:15:41;24.20;1.00
318;DHT22;146;53.448;10.228;2023-06-14T12:18:10;24.10;1.00
318;DHT22;146;53.448;10.228;2023-06-14T12:20:39;24.00;1.00
318;DHT22;146;53.448;10.228;2023-06-14T12:23:07;23.80;1.00
318;DHT22;146;53.448;10.228;2023-06-14T12:25:41;23.90;1.00
318;DHT22;146;53.448;10.228;2023-06-14T12:28:10;24.00;1.00
318;DHT22;146;53.448;10.228;2023-06-14T12:30:37;24.00;1.00
318;DHT22;146;53.448;10.228;2023-06-14T12:33:05;23.80;1.00
318;DHT22;146;53.448;10.228;2023-06-14T12:35:36;23.60;1.00
318;DHT22;146;53.448;10.228;2023-06-14T12:38:05;23.50;1.00
318;DHT22;146;53.448;10.228;2023-06-14T12:40:40;23.40;1.00
318;DHT22;146;53.448;10.228;2023-06-14T12:43:07;23.50;1.00
318;DHT22;146;53.448;10.228;2023-06-14T12:45:34;23.60;1.00
318;DHT22;146;53.448;10.228;2023-06-14T12:48:00;23.80;1.00
318;DHT22;146;53.448;10.228;2023-06-14T12:50:33;23.90;1.00
318;DHT22;146;53.448;10.228;2023-06-14T12:53:03;24.00;1.00
318;DHT22;146;53.448;10.228;2023-06-14T12:55:30;24.00;1.00
318;DHT22;146;53.448;10.228;2023-06-14T12:57:58;24.20;1.00
318;DHT22;146;53.448;10.228;2023-06-14T13:00:43;24.20;1.00
318;DHT22;146;53.448;10.228;2023-06-14T13:03:10;24.30;1.00
318;DHT22;146;53.448;10.228;2023-06-14T13:05:37;24.10;1.00
318;DHT22;146;53.448;10.228;2023-06-14T13:08:09;24.10;1.00
318;DHT22;146;53.448;10.228;2023-06-14T13:10:44;24.20;1.00
318;DHT22;146;53.448;10.228;2023-06-14T13:13:16;24.30;1.00
318;DHT22;146;53.448;10.228;2023-06-14T13:15:42;24.20;1.00
318;DHT22;146;53.448;10.228;2023-06-14T13:18:14;24.20;1.00
318;DHT22;146;53.448;10.228;2023-06-14T13:20:40;24.00;1.00
318;DHT22;146;53.448;10.228;2023-06-14T13:23:10;24.00;1.00
318;DHT22;146;53.448;10.228;2023-06-14T13:25:38;24.10;1.00
318;DHT22;146;53.448;10.228;2023-06-14T13:28:08;24.20;1.00
318;DHT22;146;53.448;10.228;2023-06-14T13:30:51;24.20;1.00
318;DHT22;146;53.448;10.228;2023-06-14T13:33:24;24.30;1.00
318;DHT22;146;53.448;10.228;2023-06-14T13:35:51;24.30;1.00
318;DHT22;146;53.448;10.228;2023-06-14T13:38:18;24.20;1.00
318;DHT22;146;53.448;10.228;2023-06-14T13:40:51;24.20;1.00
318;DHT22;146;53.448;10.228;2023-06-14T13:43:18;24.20;1.00
318;DHT22;146;53.448;10.228;2023-06-14T13:45:52;24.20;1.00
318;DHT22;146;53.448;10.228;2023-06-14T13:48:28;24.30;1.00
318;DHT22;146;53.448;10.228;2023-06-14T13:51:01;24.30;1.00
318;DHT22;146;53.448;10.228;2023-06-14T13:53:32;24.40;1.00
318;DHT22;146;53.448;10.228;2023-06-14T13:55:59;24.40;1.00
318;DHT22;146;53.448;10.228;2023-06-14T13:58:26;24.40;1.00
318;DHT22;146;53.448;10.228;2023-06-14T14:01:04;24.40;1.00
318;DHT22;146;53.448;10.228;2023-06-14T14:03:30;24.30;1.00
318;DHT22;146;53.448;10.228;2023-06-14T14:06:00;24.40;1.00
318;DHT22;146;53.448;10.228;2023-06-14T14:08:34;24.40;1.00
318;DHT22;146;53.448;10.228;2023-06-14T14:11:01;24.50;1.00
318;DHT22;146;53.448;10.228;2023-06-14T14:13:31;24.50;1.00
318;DHT22;146;53.448;10.228;2023-06-14T14:16:06;24.60;1.00
318;DHT22;146;53.448;10.228;2023-06-14T14:18:33;24.60;1.00
318;DHT22;146;53.448;10.228;2023-06-14T14:21:03;24.70;1.00
318;DHT22;146;53.448;10.228;2023-06-14T14:23:32;24.70;1.00
318;DHT22;146;53.448;10.228;2023-06-14T14:26:01;24.60;1.00
318;DHT22;146;53.448;10.228;2023-06-14T14:28:29;24.50;1.00
318;DHT22;146;53.448;10.228;2023-06-14T14:30:56;24.60;1.00
318;DHT22;146;53.448;10.228;2023-06-14T14:33:34;24.70;1.00
318;DHT22;146;53.448;10.228;2023-06-14T14:36:04;24.50;1.00
318;DHT22;146;53.448;10.228;2023-06-14T14:38:32;24.30;1.00
318;DHT22;146;53.448;10.228;2023-06-14T14:41:01;24.20;1.00
318;DHT22;146;53.448;10.228;2023-06-14T14:43:29;24.30;1.00
318;DHT22;146;53.448;10.228;2023-06-14T14:46:00;24.40;1.00
318;DHT22;146;53.448;10.228;2023-06-14T14:48:29;24.30;1.00
318;DHT22;146;53.448;10.228;2023-06-14T14:51:03;24.40;1.00
318;DHT22;146;53.448;10.228;2023-06-14T14:53:30;24.40;1.00
318;DHT22;146;53.448;10.228;2023-06-14T14:56:00;24.20;1.00
318;DHT22;146;53.448;10.228;2023-06-14T14:58:27;24.10;1.00
318;DHT22;146;53.448;10.228;2023-06-14T15:00:54;24.00;1.00
318;DHT22;146;53.448;10.228;2023-06-14T15:03:26;23.90;1.00
318;DHT22;146;53.448;10.228;2023-06-14T15:05:53;23.90;1.00
318;DHT22;146;53.448;10.228;2023-06-14T15:08:33;23.90;1.00
318;DHT22;146;53.448;10.228;2023-06-14T15:11:00;23.80;1.00
318;DHT22;146;53.448;10.228;2023-06-14T15:13:32;23.90;1.00
318;DHT22;146;53.448;10.228;2023-06-14T15:16:02;23.90;1.00
318;DHT22;146;53.448;10.228;2023-06-14T15:18:29;23.90;1.00
318;DHT22;146;53.448;10.228;2023-06-14T15:20:58;23.90;1.00
318;DHT22;146;53.448;10.228;2023-06-14T15:23:29;23.90;1.00
318;DHT22;146;53.448;10.228;2023-06-14T15:25:58;24.00;1.00
318;DHT22;146;53.448;10.228;2023-06-14T15:28:31;24.00;1.00
318;DHT22;146;53.448;10.228;2023-06-14T15:30:59;24.00;1.00
318;DHT22;146;53.448;10.228;2023-06-14T15:33:26;24.00;1.00
318;DHT22;146;53.448;10.228;2023-06-14T15:35:52;23.90;1.00
318;DHT22;146;53.448;10.228;2023-06-14T15:38:25;23.90;1.00
318;DHT22;146;53.448;10.228;2023-06-14T15:40:53;23.90;1.00
318;DHT22;146;53.448;10.228;2023-06-14T15:43:23;23.90;1.00
318;DHT22;146;53.448;10.228;2023-06-14T15:45:56;23.90;1.00
318;DHT22;146;53.448;10.228;2023-06-14T15:48:35;23.90;1.00
318;DHT22;146;53.448;10.228;2023-06-14T15:51:02;23.90;1.00
318;DHT22;146;53.448;10.228;2023-06-14T15:53:29;24.00;1.00
318;DHT22;146;53.448;10.228;2023-06-14T15:56:00;24.10;1.00
318;DHT22;146;53.448;10.228;2023-06-14T15:58:29;24.00;1.00
318;DHT22;146;53.448;10.228;2023-06-14T16:00:56;24.00;1.00
318;DHT22;146;53.448;10.228;2023-06-14T16:03:38;24.00;1.00
318;DHT22;146;53.448;10.228;2023-06-14T16:06:05;23.90;1.00
318;DHT22;146;53.448;10.228;2023-06-14T16:08:38;23.90;1.00
318;DHT22;146;53.448;10.228;2023-06-14T16:11:09;24.00;1.00
318;DHT22;146;53.448;10.228;2023-06-14T16:13:36;24.00;1.00
318;DHT22;146;53.448;10.228;2023-06-14T16:16:03;23.90;1.00
318;DHT22;146;53.448;10.228;2023-06-14T16:18:36;23.80;1.00
318;DHT22;146;53.448;10.228;2023-06-14T16:21:12;23.80;1.00
318;DHT22;146;53.448;10.228;2023-06-14T16:23:51;23.80;1.00
318;DHT22;146;53.448;10.228;2023-06-14T16:26:26;23.80;1.00
318;DHT22;146;53.448;10.228;2023-06-14T16:28:57;23.90;1.00
318;DHT22;146;53.448;10.228;2023-06-14T16:31:29;24.00;1.00
318;DHT22;146;53.448;10.228;2023-06-14T16:33:56;23.90;1.00
318;DHT22;146;53.448;10.228;2023-06-14T16:36:24;23.80;1.00
318;DHT22;146;53.448;10.228;2023-06-14T16:38:51;23.60;1.00
318;DHT22;146;53.448;10.228;2023-06-14T16:41:17;23.60;1.00
318;DHT22;146;53.448;10.228;2023-06-14T16:43:48;23.60;1.00
318;DHT22;146;53.448;10.228;2023-06-14T16:46:27;23.40;1.00
318;DHT22;146;53.448;10.228;2023-06-14T16:49:01;23.40;1.00
318;DHT22;146;53.448;10.228;2023-06-14T16:51:28;23.30;1.00
318;DHT22;146;53.448;10.228;2023-06-14T16:54:04;23.40;1.00
318;DHT22;146;53.448;10.228;2023-06-14T16:56:31;23.50;1.00
318;DHT22;146;53.448;10.228;2023-06-14T16:58:59;23.50;1.00